KWVI/WVI METAR and TAF weather

Enter ICAO airport designator
Station Type Date Time Source
KWVI METAR 2020/04/07 05:53 UTC NOAA

KWVI 070553Z AUTO 32003KT 10SM BKN028 BKN060 07/06 A3004 RMK AO2 SLP173 T00720056 10117 20067 51021 $


Station Type Date Time Source
KWVI Decoded METAR 2020/04/07 05:53 UTC NOAA

WATSONVILLE MUNICIPAL AIRPORT , CA, United States (KWVI) 36-56N 121-47W 43M
Apr 07, 2020 - 01:53 AM EDT / 2020.04.07 0553 UTC
Wind: from the NW (320 degrees) at 3 MPH (3 KT):0
Visibility: 10 mile(s):0
Sky conditions: mostly cloudy
Temperature: 45.0 F (7.2 C)
Dew Point: 42.1 F (5.6 C)
Relative Humidity: 89%
Pressure (altimeter): 30.04 in. Hg (1017 hPa)
Pressure tendency: 0.06 inches (2.1 hPa) higher than three hours ago
ob: KWVI 070553Z AUTO 32003KT 10SM BKN028 BKN060 07/06 A3004 RMK AO2 SLP173 T00720056 10117 20067 51021
cycle: 6

Station Type Date Time Source
KWVI TAF UTC NOAA

Error!

Example: see airport list